createdAt,value
2018-05-02T00:00:30.783Z,3.51
2018-05-02T00:01:30.967Z,3.51
2018-05-02T00:02:31.156Z,3.42
2018-05-02T00:03:31.334Z,3.48
2018-05-02T00:04:31.516Z,3.45
2018-05-02T00:05:31.699Z,3.51
2018-05-02T00:06:31.880Z,3.29
2018-05-02T00:07:32.064Z,3.46
2018-05-02T00:08:32.247Z,3.37
2018-05-02T00:09:32.430Z,3.42
2018-05-02T00:10:32.614Z,3.49
2018-05-02T00:11:32.797Z,3.46
2018-05-02T00:12:32.981Z,3.51
2018-05-02T00:13:33.163Z,3.51
2018-05-02T00:14:33.346Z,3.46
2018-05-02T00:15:33.529Z,3.49
2018-05-02T00:16:33.712Z,3.36
2018-05-02T00:17:33.894Z,3.35
2018-05-02T00:18:34.077Z,3.33
2018-05-02T00:19:34.259Z,3.26
2018-05-02T00:20:34.442Z,3.33
2018-05-02T00:21:34.625Z,3.37
2018-05-02T00:22:34.809Z,3.49
2018-05-02T00:23:34.993Z,3.46
2018-05-02T00:24:35.173Z,3.51
2018-05-02T00:25:35.356Z,3.41
2018-05-02T00:26:35.539Z,3.36
2018-05-02T00:27:35.723Z,3.37
2018-05-02T00:28:35.938Z,3.37
2018-05-02T00:29:36.086Z,3.25
2018-05-02T00:30:36.271Z,3.22
2018-05-02T00:31:36.455Z,3.22
2018-05-02T00:32:36.636Z,3.22
2018-05-02T00:33:36.819Z,3.20
2018-05-02T00:34:37.003Z,3.23
2018-05-02T00:35:37.186Z,3.15
2018-05-02T00:36:37.370Z,3.18
2018-05-02T00:37:37.551Z,3.23
2018-05-02T00:38:37.735Z,3.22
2018-05-02T00:39:37.956Z,3.27
2018-05-02T00:40:38.099Z,3.33
2018-05-02T00:41:38.282Z,3.33
2018-05-02T00:42:38.465Z,3.30
2018-05-02T00:43:38.650Z,3.18
2018-05-02T00:44:38.832Z,3.07
2018-05-02T00:45:39.013Z,3.05
2018-05-02T00:46:39.203Z,2.96
2018-05-02T00:47:39.380Z,2.91
2018-05-02T00:48:39.565Z,2.91
2018-05-02T00:49:39.745Z,2.87
2018-05-02T00:50:39.928Z,2.91
2018-05-02T00:51:40.109Z,2.75
2018-05-02T00:52:40.292Z,2.75
2018-05-02T00:53:40.472Z,2.82
2018-05-02T00:54:40.656Z,2.75
2018-05-02T00:55:40.837Z,2.81
2018-05-02T00:56:41.019Z,2.73
2018-05-02T00:57:41.201Z,2.79
2018-05-02T00:58:41.385Z,2.76
2018-05-02T00:59:41.568Z,2.75
2018-05-02T01:00:41.752Z,2.68
2018-05-02T01:01:41.932Z,2.65
2018-05-02T01:02:42.115Z,2.69
2018-05-02T01:03:42.298Z,2.63
2018-05-02T01:04:42.480Z,2.58
2018-05-02T01:05:42.663Z,2.50
2018-05-02T01:06:42.846Z,2.51
2018-05-02T01:07:43.030Z,2.48
2018-05-02T01:08:43.209Z,2.50
2018-05-02T01:09:43.392Z,2.47
2018-05-02T01:10:43.572Z,2.48
2018-05-02T01:11:58.702Z,2.50
2018-05-02T01:12:43.993Z,2.55
2018-05-02T01:13:44.176Z,2.47
2018-05-02T01:14:44.360Z,2.45
2018-05-02T01:15:44.543Z,2.43
2018-05-02T01:16:44.729Z,2.48
2018-05-02T01:17:44.912Z,2.42
2018-05-02T01:18:45.093Z,2.37
2018-05-02T01:19:45.277Z,2.32
2018-05-02T01:20:45.459Z,2.30
2018-05-02T01:21:45.642Z,2.30
2018-05-02T01:22:45.825Z,2.30
2018-05-02T01:23:46.009Z,2.32
2018-05-02T01:24:46.199Z,2.30
2018-05-02T01:25:46.374Z,2.25
2018-05-02T01:26:46.556Z,2.22
2018-05-02T01:27:46.738Z,2.36
2018-05-02T01:28:46.921Z,2.32
2018-05-02T01:29:47.104Z,2.29
2018-05-02T01:30:47.287Z,2.22
2018-05-02T01:31:47.469Z,2.29
2018-05-02T01:32:47.652Z,2.18
2018-05-02T01:33:47.834Z,2.22
2018-05-02T01:34:48.023Z,2.18
2018-05-02T01:35:48.199Z,2.12
2018-05-02T01:36:48.382Z,2.18
2018-05-02T01:37:48.566Z,2.21
2018-05-02T01:38:48.753Z,2.21
2018-05-02T01:39:48.930Z,2.24
2018-05-02T01:40:49.113Z,2.25
2018-05-02T01:41:49.298Z,2.22
2018-05-02T01:42:49.476Z,2.22
2018-05-02T01:43:49.661Z,2.21
2018-05-02T01:44:49.848Z,2.25
2018-05-02T01:45:50.030Z,2.22
2018-05-02T01:46:50.214Z,2.21
2018-05-02T01:47:50.397Z,2.17
2018-05-02T01:48:50.578Z,2.14
2018-05-02T01:49:50.761Z,2.15
2018-05-02T01:50:50.945Z,2.21
2018-05-02T01:51:51.130Z,2.21
2018-05-02T01:52:51.309Z,2.11
2018-05-02T01:53:51.494Z,2.12
2018-05-02T01:54:51.677Z,2.10
2018-05-02T01:55:51.860Z,2.07
2018-05-02T01:56:52.045Z,2.17
2018-05-02T01:57:52.227Z,2.10
2018-05-02T01:58:52.407Z,2.14
2018-05-02T01:59:52.591Z,2.24
2018-05-02T02:00:52.773Z,2.22
2018-05-02T02:01:52.955Z,2.22
2018-05-02T02:02:53.138Z,2.14
2018-05-02T02:03:53.321Z,2.21
2018-05-02T02:04:53.504Z,2.17
2018-05-02T02:05:53.685Z,2.15
2018-05-02T02:06:53.869Z,2.15
2018-05-02T02:07:54.051Z,2.12
2018-05-02T02:08:54.233Z,2.07
2018-05-02T02:09:54.414Z,2.10
2018-05-02T02:10:54.595Z,1.99
2018-05-02T02:11:54.777Z,2.10
2018-05-02T02:12:54.959Z,2.17
2018-05-02T02:13:55.145Z,2.12
2018-05-02T02:14:55.328Z,2.11
2018-05-02T02:15:55.519Z,2.07
2018-05-02T02:16:55.694Z,2.04
2018-05-02T02:17:55.877Z,2.10
2018-05-02T02:18:56.061Z,1.99
2018-05-02T02:19:56.241Z,2.06
2018-05-02T02:20:56.422Z,2.04
2018-05-02T02:21:56.604Z,2.07
2018-05-02T02:22:56.788Z,2.11
2018-05-02T02:23:56.971Z,2.10
2018-05-02T02:24:57.152Z,2.07
2018-05-02T02:25:57.334Z,2.15
2018-05-02T02:26:57.516Z,2.11
2018-05-02T02:27:57.702Z,2.18
2018-05-02T02:28:57.946Z,2.15
2018-05-02T02:29:58.065Z,2.12
2018-05-02T02:30:58.247Z,2.15
2018-05-02T02:31:58.432Z,2.10
2018-05-02T02:32:58.614Z,2.12
2018-05-02T02:33:58.869Z,2.03
2018-05-02T02:34:58.982Z,1.93
2018-05-02T02:35:59.160Z,1.99
2018-05-02T02:36:59.345Z,1.99
2018-05-02T02:37:59.530Z,1.92
2018-05-02T02:38:59.712Z,1.84
2018-05-02T02:39:59.892Z,1.87
2018-05-02T02:41:00.076Z,1.81
2018-05-02T02:42:00.255Z,1.85
2018-05-02T02:43:00.439Z,1.81
2018-05-02T02:44:00.621Z,1.80
2018-05-02T02:45:00.805Z,1.74
2018-05-02T02:46:00.987Z,1.67
2018-05-02T02:47:01.168Z,1.77
2018-05-02T02:48:01.351Z,1.71
2018-05-02T02:49:01.535Z,1.71
2018-05-02T02:50:01.716Z,1.73
2018-05-02T02:51:01.900Z,1.71
2018-05-02T02:52:02.082Z,1.71
2018-05-02T02:53:02.262Z,1.67
2018-05-02T02:54:02.444Z,1.67
2018-05-02T02:55:02.627Z,1.69
2018-05-02T02:56:02.810Z,1.64
2018-05-02T02:57:02.992Z,1.78
2018-05-02T02:58:03.176Z,1.66
2018-05-02T02:59:03.357Z,1.62
2018-05-02T03:00:03.542Z,1.64
2018-05-02T03:01:03.721Z,1.67
2018-05-02T03:02:03.909Z,1.64
2018-05-02T03:03:04.085Z,1.67
2018-05-02T03:04:04.267Z,1.63
2018-05-02T03:05:04.451Z,1.66
2018-05-02T03:06:04.634Z,1.63
2018-05-02T03:07:04.813Z,1.60
2018-05-02T03:08:05.331Z,1.64
2018-05-02T03:09:05.312Z,1.59
2018-05-02T03:10:05.368Z,1.67
2018-05-02T03:11:05.550Z,1.67
2018-05-02T03:12:05.733Z,1.69
2018-05-02T03:13:05.915Z,1.69
2018-05-02T03:14:06.097Z,1.73
2018-05-02T03:15:06.279Z,1.64
2018-05-02T03:16:06.458Z,1.55
2018-05-02T03:17:06.643Z,1.56
2018-05-02T03:18:06.828Z,1.55
2018-05-02T03:19:07.007Z,1.53
2018-05-02T03:20:07.189Z,1.56
2018-05-02T03:21:07.371Z,1.59
2018-05-02T03:22:07.553Z,1.57
2018-05-02T03:23:07.737Z,1.52
2018-05-02T03:24:07.920Z,1.59
2018-05-02T03:25:08.103Z,1.55
2018-05-02T03:26:08.282Z,1.59
2018-05-02T03:27:08.504Z,1.60
2018-05-02T03:28:08.648Z,1.66
2018-05-02T03:29:08.830Z,1.63
2018-05-02T03:30:09.015Z,1.62
2018-05-02T03:31:09.192Z,1.59
2018-05-02T03:32:09.374Z,1.62
2018-05-02T03:33:09.562Z,1.64
2018-05-02T03:34:09.739Z,1.57
2018-05-02T03:35:09.928Z,1.52
2018-05-02T03:36:10.104Z,1.60
2018-05-02T03:37:10.288Z,1.64
2018-05-02T03:38:10.469Z,1.63
2018-05-02T03:39:10.652Z,1.57
2018-05-02T03:40:10.835Z,1.60
2018-05-02T03:41:11.020Z,1.67
2018-05-02T03:42:11.201Z,1.62
2018-05-02T03:43:11.384Z,1.62
2018-05-02T03:44:11.567Z,1.64
2018-05-02T03:45:11.750Z,1.67
2018-05-02T03:46:11.932Z,1.60
2018-05-02T03:47:12.116Z,1.66
2018-05-02T03:48:12.298Z,1.60
2018-05-02T03:49:12.484Z,1.63
2018-05-02T03:50:12.664Z,1.64
2018-05-02T03:51:12.845Z,1.71
2018-05-02T03:52:13.025Z,1.66
2018-05-02T03:53:13.208Z,1.67
2018-05-02T03:54:13.389Z,1.66
2018-05-02T03:55:13.571Z,1.69
2018-05-02T03:56:13.754Z,1.71
2018-05-02T03:57:13.938Z,1.87
2018-05-02T03:58:14.117Z,1.75
2018-05-02T03:59:14.301Z,1.85
2018-05-02T04:00:14.482Z,1.78
2018-05-02T04:01:14.664Z,1.87
2018-05-02T04:02:14.845Z,1.85
2018-05-02T04:03:15.027Z,1.92
2018-05-02T04:04:15.208Z,1.92
2018-05-02T04:05:15.393Z,1.81
2018-05-02T04:06:15.572Z,1.91
2018-05-02T04:07:15.756Z,2.04
2018-05-02T04:08:15.941Z,2.19
2018-05-02T04:09:16.120Z,2.24
2018-05-02T04:10:16.307Z,2.30
2018-05-02T04:11:16.489Z,2.36
2018-05-02T04:12:16.672Z,2.39
2018-05-02T04:13:16.853Z,2.36
2018-05-02T04:14:17.038Z,2.45
2018-05-02T04:15:17.220Z,2.36
2018-05-02T04:16:17.404Z,2.43
2018-05-02T04:17:17.591Z,2.40
2018-05-02T04:18:17.771Z,2.54
2018-05-02T04:19:17.962Z,2.63
2018-05-02T04:20:18.139Z,2.75
2018-05-02T04:21:18.321Z,2.82
2018-05-02T04:22:18.506Z,2.87
2018-05-02T04:23:18.689Z,2.91
2018-05-02T04:24:18.872Z,2.91
2018-05-02T04:25:19.057Z,3.05
2018-05-02T04:26:19.240Z,3.20
2018-05-02T04:27:19.423Z,3.22
2018-05-02T04:28:19.608Z,3.33
2018-05-02T04:29:19.791Z,3.37
2018-05-02T04:30:19.976Z,3.45
2018-05-02T04:31:20.166Z,3.60
2018-05-02T04:32:20.345Z,3.67
2018-05-02T04:33:20.526Z,3.90
2018-05-02T04:34:20.711Z,4.12
2018-05-02T04:35:20.896Z,4.26
2018-05-02T04:36:21.080Z,4.57
2018-05-02T04:37:21.267Z,4.64
2018-05-02T04:38:21.452Z,4.75
2018-05-02T04:39:21.648Z,4.74
2018-05-02T04:40:21.825Z,4.75
2018-05-02T04:41:22.011Z,4.85
2018-05-02T04:42:22.198Z,4.85
2018-05-02T04:43:22.383Z,4.83
2018-05-02T04:44:22.570Z,4.82
2018-05-02T04:45:22.757Z,4.89
2018-05-02T04:46:22.947Z,5.06
2018-05-02T04:47:23.128Z,4.89
2018-05-02T04:48:23.316Z,4.53
2018-05-02T04:49:23.511Z,4.23
2018-05-02T04:50:23.690Z,3.94
2018-05-02T04:51:23.876Z,3.94
2018-05-02T04:52:24.068Z,3.94
2018-05-02T04:53:24.252Z,4.00
2018-05-02T04:54:24.443Z,4.28
2018-05-02T04:55:24.701Z,4.35
2018-05-02T04:56:24.804Z,4.54
2018-05-02T04:57:24.990Z,4.63
2018-05-02T04:58:25.176Z,4.67
2018-05-02T04:59:25.381Z,4.72
2018-05-02T05:00:25.553Z,4.91
2018-05-02T05:01:25.740Z,4.91
2018-05-02T05:02:25.925Z,4.96
2018-05-02T05:03:26.111Z,4.94
2018-05-02T05:04:26.299Z,5.01
2018-05-02T05:05:26.484Z,5.03
2018-05-02T05:06:26.674Z,5.14
2018-05-02T05:07:26.859Z,5.14
2018-05-02T05:08:27.048Z,5.30
2018-05-02T05:09:27.234Z,5.30
2018-05-02T05:10:27.422Z,5.34
2018-05-02T05:11:27.606Z,5.34
2018-05-02T05:12:27.792Z,5.33
2018-05-02T05:13:27.981Z,5.43
2018-05-02T05:14:28.165Z,5.43
2018-05-02T05:15:28.354Z,5.41
2018-05-02T05:16:28.540Z,5.44
2018-05-02T05:17:28.726Z,5.39
2018-05-02T05:18:28.912Z,5.50
2018-05-02T05:19:29.099Z,5.62
2018-05-02T05:20:29.285Z,5.65
2018-05-02T05:21:29.474Z,5.67
2018-05-02T05:22:29.656Z,5.72
2018-05-02T05:23:29.844Z,5.75
2018-05-02T05:24:30.031Z,5.80
2018-05-02T05:25:30.218Z,5.85
2018-05-02T05:26:30.403Z,5.84
2018-05-02T05:27:30.589Z,5.75
2018-05-02T05:28:30.774Z,5.84
2018-05-02T05:29:30.961Z,5.95
2018-05-02T05:30:31.146Z,5.85
2018-05-02T05:31:31.334Z,5.88
2018-05-02T05:32:31.520Z,5.95
2018-05-02T05:33:31.714Z,5.98
2018-05-02T05:34:31.893Z,6.08
2018-05-02T05:35:32.080Z,5.79
2018-05-02T05:36:32.266Z,5.90
2018-05-02T05:37:32.451Z,5.77
2018-05-02T05:38:32.641Z,5.55
2018-05-02T05:39:32.824Z,5.65
2018-05-02T05:40:33.010Z,5.79
2018-05-02T05:41:33.197Z,6.00
2018-05-02T05:42:33.383Z,5.77
2018-05-02T05:43:33.628Z,5.98
2018-05-02T05:44:33.755Z,6.09
2018-05-02T05:45:33.942Z,6.30
2018-05-02T05:46:34.127Z,6.47
2018-05-02T05:47:34.315Z,6.43
2018-05-02T05:48:34.505Z,6.63
2018-05-02T05:49:34.697Z,6.74
2018-05-02T05:50:34.874Z,6.86
2018-05-02T05:51:35.062Z,7.11
2018-05-02T05:52:35.248Z,7.16
2018-05-02T05:53:35.431Z,7.40
2018-05-02T05:54:35.667Z,7.49
2018-05-02T05:55:35.808Z,7.58
2018-05-02T05:56:35.995Z,7.78
2018-05-02T05:57:36.222Z,7.86
2018-05-02T05:58:36.369Z,7.42
2018-05-02T05:59:36.555Z,7.34
2018-05-02T06:00:36.743Z,7.10
2018-05-02T06:01:36.933Z,6.57
2018-05-02T06:02:37.122Z,6.32
2018-05-02T06:03:37.308Z,6.50
2018-05-02T06:04:37.496Z,6.46
2018-05-02T06:05:37.684Z,6.60
2018-05-02T06:06:37.915Z,6.64
2018-05-02T06:07:38.062Z,6.74
2018-05-02T06:08:38.249Z,6.78
2018-05-02T06:09:38.435Z,6.79
2018-05-02T06:10:38.621Z,7.13
2018-05-02T06:11:38.815Z,7.36
2018-05-02T06:12:39.013Z,7.64
2018-05-02T06:13:39.227Z,8.31
2018-05-02T06:14:39.379Z,8.71
2018-05-02T06:15:39.571Z,8.83
2018-05-02T06:16:39.761Z,9.23
2018-05-02T06:17:39.951Z,9.24
2018-05-02T06:18:40.139Z,8.62
2018-05-02T06:19:40.328Z,8.59
2018-05-02T06:20:40.515Z,8.92
2018-05-02T06:21:40.705Z,8.34
2018-05-02T06:22:40.894Z,7.74
2018-05-02T06:23:41.084Z,7.50
2018-05-02T06:24:41.274Z,6.96
2018-05-02T06:25:41.466Z,7.26
2018-05-02T06:26:41.654Z,7.19
2018-05-02T06:27:41.846Z,7.25
2018-05-02T06:28:42.035Z,7.40
2018-05-02T06:29:42.224Z,7.76
2018-05-02T06:30:42.413Z,7.83
2018-05-02T06:31:42.627Z,7.95
2018-05-02T06:32:42.794Z,8.50
2018-05-02T06:33:42.986Z,8.55
2018-05-02T06:34:43.177Z,8.49
2018-05-02T06:35:43.367Z,8.86
2018-05-02T06:36:43.555Z,9.29
2018-05-02T06:37:43.870Z,9.48
2018-05-02T06:38:43.938Z,9.37
2018-05-02T06:39:44.136Z,9.85
2018-05-02T06:40:44.319Z,9.60
2018-05-02T06:41:44.514Z,9.47
2018-05-02T06:42:44.704Z,9.51
2018-05-02T06:43:44.891Z,9.03
2018-05-02T06:44:45.081Z,8.68
2018-05-02T06:45:45.272Z,8.47
2018-05-02T06:46:45.464Z,8.68
2018-05-02T06:47:45.655Z,8.75
2018-05-02T06:48:45.846Z,9.15
2018-05-02T06:49:46.037Z,8.98
2018-05-02T06:50:46.229Z,8.57
2018-05-02T06:51:46.436Z,9.03
2018-05-02T06:52:46.613Z,9.15
2018-05-02T06:53:46.806Z,9.45
2018-05-02T06:54:47.079Z,10.01
2018-05-02T06:55:47.189Z,10.08
2018-05-02T06:56:47.381Z,9.45
2018-05-02T06:57:47.576Z,9.22
2018-05-02T06:58:47.765Z,8.92
2018-05-02T06:59:47.959Z,8.89
2018-05-02T07:00:48.243Z,9.12
2018-05-02T07:01:48.344Z,9.54
2018-05-02T07:02:48.532Z,9.77
2018-05-02T07:03:48.726Z,10.24
2018-05-02T07:04:48.917Z,10.41
2018-05-02T07:05:49.110Z,10.48
2018-05-02T07:06:49.302Z,10.75
2018-05-02T07:07:49.492Z,11.20
2018-05-02T07:08:49.686Z,11.36
2018-05-02T07:09:49.877Z,11.62
2018-05-02T07:10:50.074Z,11.36
2018-05-02T07:11:50.261Z,10.60
2018-05-02T07:12:50.458Z,10.42
2018-05-02T07:13:50.646Z,10.67
2018-05-02T07:14:50.838Z,10.76
2018-05-02T07:15:51.030Z,10.68
2018-05-02T07:16:51.223Z,10.78
2018-05-02T07:17:51.414Z,11.19
2018-05-02T07:18:51.603Z,11.31
2018-05-02T07:19:51.799Z,10.91
2018-05-02T07:20:51.992Z,10.98
2018-05-02T07:21:52.180Z,9.73
2018-05-02T07:22:52.374Z,9.45
2018-05-02T07:23:52.570Z,10.09
2018-05-02T07:24:52.763Z,10.43
2018-05-02T07:25:52.948Z,10.62
2018-05-02T07:26:53.143Z,10.86
2018-05-02T07:27:53.336Z,10.31
2018-05-02T07:28:53.529Z,10.97
2018-05-02T07:29:53.725Z,11.22
2018-05-02T07:30:53.918Z,10.18
2018-05-02T07:31:54.112Z,10.01
2018-05-02T07:32:54.415Z,9.98
2018-05-02T07:33:54.498Z,10.05
2018-05-02T07:34:54.692Z,10.57
2018-05-02T07:35:54.884Z,10.42
2018-05-02T07:36:55.079Z,10.34
2018-05-02T07:37:55.274Z,10.23
2018-05-02T07:38:55.468Z,10.30
2018-05-02T07:39:55.661Z,10.73
2018-05-02T07:40:55.855Z,11.54
2018-05-02T07:41:56.049Z,12.54
2018-05-02T07:42:56.243Z,12.10
2018-05-02T07:43:56.436Z,11.77
2018-05-02T07:44:56.630Z,11.16
2018-05-02T07:45:56.824Z,11.20
2018-05-02T07:46:57.018Z,11.28
2018-05-02T07:47:57.213Z,11.33
2018-05-02T07:48:57.476Z,11.22
2018-05-02T07:49:57.599Z,11.28
2018-05-02T07:50:57.799Z,10.87
2018-05-02T07:51:57.991Z,11.00
2018-05-02T07:52:58.184Z,10.87
2018-05-02T07:53:58.377Z,10.57
2018-05-02T07:54:58.574Z,10.72
2018-05-02T07:55:58.782Z,11.01
2018-05-02T07:56:58.963Z,11.12
2018-05-02T07:57:59.180Z,10.98
2018-05-02T07:58:59.350Z,11.33
2018-05-02T07:59:59.545Z,11.52
2018-05-02T08:00:59.740Z,11.71
2018-05-02T08:01:59.933Z,12.25
2018-05-02T08:03:00.130Z,12.11
2018-05-02T08:04:00.321Z,12.23
2018-05-02T08:05:00.516Z,12.38
2018-05-02T08:06:00.713Z,12.30
2018-05-02T08:07:00.907Z,12.63
2018-05-02T08:08:01.103Z,12.71
2018-05-02T08:09:01.296Z,12.80
2018-05-02T08:10:01.499Z,12.46
2018-05-02T08:11:01.732Z,12.46
2018-05-02T08:12:01.882Z,12.73
2018-05-02T08:13:02.077Z,12.99
2018-05-02T08:14:02.271Z,12.77
2018-05-02T08:15:02.466Z,13.04
2018-05-02T08:16:02.663Z,12.40
2018-05-02T08:17:02.858Z,11.80
2018-05-02T08:18:03.161Z,11.88
2018-05-02T08:19:03.231Z,12.26
2018-05-02T08:20:03.425Z,12.58
2018-05-02T08:21:03.620Z,12.90
2018-05-02T08:22:03.829Z,13.09
2018-05-02T08:23:04.011Z,13.06
2018-05-02T08:24:04.204Z,12.77
2018-05-02T08:25:04.399Z,12.48
2018-05-02T08:26:04.592Z,12.35
2018-05-02T08:27:04.788Z,12.58
2018-05-02T08:28:04.982Z,13.09
2018-05-02T08:29:05.173Z,13.72
2018-05-02T08:30:05.368Z,13.90
2018-05-02T08:31:05.567Z,13.72
2018-05-02T08:32:05.760Z,13.57
2018-05-02T08:33:05.953Z,13.16
2018-05-02T08:34:06.148Z,12.98
2018-05-02T08:35:06.343Z,13.06
2018-05-02T08:36:06.535Z,13.01
2018-05-02T08:37:06.727Z,13.51
2018-05-02T08:38:06.923Z,13.43
2018-05-02T08:39:07.117Z,13.17
2018-05-02T08:40:07.317Z,12.76
2018-05-02T08:41:07.508Z,12.32
2018-05-02T08:42:07.703Z,12.46
2018-05-02T08:43:07.894Z,12.91
2018-05-02T08:44:08.086Z,13.53
2018-05-02T08:45:08.278Z,13.90
2018-05-02T08:46:08.474Z,14.56
2018-05-02T08:47:08.666Z,14.03
2018-05-02T08:48:08.863Z,13.72
2018-05-02T08:49:09.052Z,13.61
2018-05-02T08:50:09.249Z,13.23
2018-05-02T08:51:09.443Z,13.23
2018-05-02T08:52:09.642Z,13.60
2018-05-02T08:53:09.830Z,13.80
2018-05-02T08:54:10.025Z,14.30
2018-05-02T08:55:10.216Z,14.45
2018-05-02T08:56:10.410Z,14.03
2018-05-02T08:57:10.605Z,14.03
2018-05-02T08:58:10.798Z,13.36
2018-05-02T08:59:10.994Z,13.32
2018-05-02T09:00:11.185Z,13.39
2018-05-02T09:01:11.378Z,13.46
2018-05-02T09:02:11.571Z,14.11
2018-05-02T09:03:11.764Z,14.77
2018-05-02T09:04:11.957Z,15.25
2018-05-02T09:05:12.151Z,15.26
2018-05-02T09:06:12.343Z,14.77
2018-05-02T09:07:12.537Z,14.70
2018-05-02T09:08:12.732Z,14.59
2018-05-02T09:09:12.934Z,14.27
2018-05-02T09:10:13.121Z,14.67
2018-05-02T09:11:13.317Z,15.05
2018-05-02T09:12:13.506Z,15.58
2018-05-02T09:13:13.701Z,15.85
2018-05-02T09:14:13.895Z,14.95
2018-05-02T09:15:14.090Z,14.71
2018-05-02T09:16:14.285Z,14.59
2018-05-02T09:17:14.481Z,14.12
2018-05-02T09:18:14.674Z,14.40
2018-05-02T09:19:14.868Z,14.49
2018-05-02T09:20:15.064Z,15.08
2018-05-02T09:21:15.257Z,15.10
2018-05-02T09:22:15.452Z,15.22
2018-05-02T09:23:15.653Z,15.10
2018-05-02T09:24:15.840Z,14.95
2018-05-02T09:25:16.036Z,15.04
2018-05-02T09:26:16.229Z,15.44
2018-05-02T09:27:16.424Z,15.95
2018-05-02T09:28:16.618Z,16.37
2018-05-02T09:29:16.812Z,15.93
2018-05-02T09:30:17.006Z,15.59
2018-05-02T09:31:17.202Z,14.92
2018-05-02T09:32:17.398Z,14.86
2018-05-02T09:33:17.593Z,15.08
2018-05-02T09:34:17.783Z,14.99
2018-05-02T09:35:17.981Z,14.77
2018-05-02T09:36:18.171Z,14.64
2018-05-02T09:37:18.365Z,15.05
2018-05-02T09:38:18.558Z,15.65
2018-05-02T09:39:18.751Z,15.93
2018-05-02T09:40:18.944Z,16.40
2018-05-02T09:41:19.137Z,16.55
2018-05-02T09:42:19.335Z,15.93
2018-05-02T09:43:19.527Z,15.26
2018-05-02T09:44:19.720Z,15.40
2018-05-02T09:45:19.917Z,15.60
2018-05-02T09:46:20.110Z,15.84
2018-05-02T09:47:20.305Z,15.59
2018-05-02T09:48:20.497Z,15.22
2018-05-02T09:49:20.694Z,15.65
2018-05-02T09:50:20.884Z,16.10
2018-05-02T09:51:21.078Z,16.46
2018-05-02T09:52:21.275Z,16.06
2018-05-02T09:53:21.467Z,15.98
2018-05-02T09:54:21.661Z,16.13
2018-05-02T09:55:21.859Z,15.91
2018-05-02T09:56:22.049Z,15.63
2018-05-02T09:57:22.240Z,15.48
2018-05-02T09:58:22.435Z,15.29
2018-05-02T09:59:22.634Z,15.40
2018-05-02T10:00:22.823Z,15.76
2018-05-02T10:01:23.019Z,16.05
2018-05-02T10:02:23.207Z,16.49
2018-05-02T10:03:23.403Z,16.44
2018-05-02T10:04:23.598Z,16.37
2018-05-02T10:05:23.792Z,16.77
2018-05-02T10:06:23.988Z,15.98
2018-05-02T10:07:24.183Z,15.80
2018-05-02T10:08:24.373Z,16.05
2018-05-02T10:09:24.569Z,16.08
2018-05-02T10:10:24.796Z,16.32
2018-05-02T10:11:24.954Z,16.54
2018-05-02T10:12:25.165Z,16.87
2018-05-02T10:13:25.340Z,17.46
2018-05-02T10:14:25.532Z,17.20
2018-05-02T10:15:25.726Z,17.62
2018-05-02T10:16:25.920Z,17.83
2018-05-02T10:17:26.115Z,17.25
2018-05-02T10:18:26.349Z,16.54
2018-05-02T10:19:26.500Z,15.84
2018-05-02T10:20:26.693Z,15.76
2018-05-02T10:21:26.887Z,15.87
2018-05-02T10:22:27.082Z,16.47
2018-05-02T10:23:27.277Z,16.76
2018-05-02T10:24:27.469Z,17.13
2018-05-02T10:25:27.665Z,17.68
2018-05-02T10:26:27.857Z,18.15
2018-05-02T10:27:28.053Z,18.36
2018-05-02T10:28:28.243Z,18.89
2018-05-02T10:29:28.439Z,19.13
2018-05-02T10:30:28.631Z,19.23
2018-05-02T10:31:28.826Z,19.24
2018-05-02T10:32:29.020Z,19.22
2018-05-02T10:33:29.217Z,19.09
2018-05-02T10:34:29.414Z,19.27
2018-05-02T10:35:29.601Z,18.23
2018-05-02T10:36:29.796Z,17.43
2018-05-02T10:37:29.988Z,17.20
2018-05-02T10:38:30.185Z,16.97
2018-05-02T10:39:30.379Z,16.84
2018-05-02T10:40:30.576Z,16.99
2018-05-02T10:41:30.766Z,17.35
2018-05-02T10:42:30.965Z,17.27
2018-05-02T10:43:31.155Z,16.25
2018-05-02T10:44:31.347Z,15.69
2018-05-02T10:45:31.542Z,15.62
2018-05-02T10:46:31.734Z,15.48
2018-05-02T10:47:31.927Z,15.38
2018-05-02T10:48:32.121Z,15.58
2018-05-02T10:49:32.314Z,15.62
2018-05-02T10:50:32.545Z,15.60
2018-05-02T10:51:32.700Z,15.30
2018-05-02T10:52:32.892Z,15.80
2018-05-02T10:53:33.086Z,15.84
2018-05-02T10:54:33.279Z,15.90
2018-05-02T10:55:33.475Z,16.28
2018-05-02T10:56:33.669Z,16.00
2018-05-02T10:57:33.863Z,16.43
2018-05-02T10:58:34.057Z,16.65
2018-05-02T10:59:34.256Z,16.87
2018-05-02T11:00:34.443Z,17.13
2018-05-02T11:01:34.637Z,17.04
2018-05-02T11:02:34.831Z,17.02
2018-05-02T11:03:35.024Z,17.53
2018-05-02T11:04:35.219Z,17.19
2018-05-02T11:05:35.411Z,16.98
2018-05-02T11:06:35.604Z,16.80
2018-05-02T11:07:35.795Z,16.99
2018-05-02T11:08:35.990Z,16.83
2018-05-02T11:09:36.183Z,15.63
2018-05-02T11:10:36.376Z,15.50
2018-05-02T11:11:36.574Z,15.54
2018-05-02T11:12:36.768Z,15.76
2018-05-02T11:13:36.958Z,15.26
2018-05-02T11:14:37.151Z,15.66
2018-05-02T11:15:37.343Z,15.96
2018-05-02T11:16:37.535Z,16.34
2018-05-02T11:17:37.728Z,16.40
2018-05-02T11:18:37.920Z,16.61
2018-05-02T11:19:38.113Z,16.57
2018-05-02T11:20:38.307Z,15.76
2018-05-02T11:21:38.499Z,15.54
2018-05-02T11:22:38.693Z,15.48
2018-05-02T11:23:38.886Z,15.65
2018-05-02T11:24:39.077Z,15.58
2018-05-02T11:25:39.269Z,15.12
2018-05-02T11:26:39.463Z,15.08
2018-05-02T11:27:39.652Z,15.48
2018-05-02T11:28:39.845Z,15.54
2018-05-02T11:29:40.039Z,15.35
2018-05-02T11:30:40.231Z,15.35
2018-05-02T11:31:40.428Z,15.63
2018-05-02T11:32:40.615Z,15.60
2018-05-02T11:33:40.807Z,15.63
2018-05-02T11:34:41.010Z,15.58
2018-05-02T11:35:41.190Z,15.72
2018-05-02T11:36:41.383Z,15.76
2018-05-02T11:37:41.581Z,16.17
2018-05-02T11:38:41.768Z,16.47
2018-05-02T11:39:41.961Z,16.40
2018-05-02T11:40:42.249Z,15.81
2018-05-02T11:41:42.346Z,15.56
2018-05-02T11:42:42.536Z,15.77
2018-05-02T11:43:42.728Z,15.72
2018-05-02T11:44:42.922Z,15.83
2018-05-02T11:45:43.113Z,15.51
2018-05-02T11:46:43.305Z,15.66
2018-05-02T11:47:43.498Z,15.80
2018-05-02T11:48:43.691Z,16.05
2018-05-02T11:49:43.883Z,16.34
2018-05-02T11:50:44.075Z,16.57
2018-05-02T11:51:44.266Z,16.87
2018-05-02T11:52:44.459Z,17.07
2018-05-02T11:53:44.651Z,16.99
2018-05-02T11:54:44.842Z,16.06
2018-05-02T11:55:45.039Z,16.10
2018-05-02T11:56:45.232Z,16.22
2018-05-02T11:57:45.489Z,16.21
2018-05-02T11:58:45.613Z,16.47
2018-05-02T11:59:45.809Z,16.25
2018-05-02T12:00:45.998Z,16.58
2018-05-02T12:01:46.192Z,16.98
2018-05-02T12:02:46.384Z,16.99
2018-05-02T12:03:46.576Z,16.47
2018-05-02T12:04:46.770Z,16.22
2018-05-02T12:05:46.962Z,16.34
2018-05-02T12:06:47.153Z,16.47
2018-05-02T12:07:47.347Z,16.42
2018-05-02T12:08:47.538Z,16.52
2018-05-02T12:09:47.730Z,16.49
2018-05-02T12:10:47.923Z,16.24
2018-05-02T12:11:48.113Z,16.09
2018-05-02T12:12:48.305Z,16.36
2018-05-02T12:13:48.498Z,16.44
2018-05-02T12:14:48.691Z,16.77
2018-05-02T12:15:48.889Z,16.58
2018-05-02T12:16:49.077Z,16.61
2018-05-02T12:17:49.269Z,16.79
2018-05-02T12:18:49.462Z,16.98
2018-05-02T12:19:49.654Z,16.76
2018-05-02T12:20:49.848Z,16.49
2018-05-02T12:21:50.088Z,16.67
2018-05-02T12:22:50.231Z,17.20
2018-05-02T12:23:50.422Z,17.63
2018-05-02T12:24:50.615Z,17.12
2018-05-02T12:25:50.811Z,16.90
2018-05-02T12:26:51.001Z,17.01
2018-05-02T12:27:51.228Z,17.46
2018-05-02T12:28:51.386Z,17.69
2018-05-02T12:29:51.577Z,17.75
2018-05-02T12:30:51.773Z,17.43
2018-05-02T12:31:51.966Z,17.12
2018-05-02T12:32:52.158Z,16.55
2018-05-02T12:33:52.359Z,16.28
2018-05-02T12:34:52.546Z,16.13
2018-05-02T12:35:52.738Z,16.51
2018-05-02T12:36:52.928Z,16.90
2018-05-02T12:37:53.123Z,17.41
2018-05-02T12:38:53.315Z,17.41
2018-05-02T12:39:53.508Z,17.57
2018-05-02T12:40:53.715Z,17.72
2018-05-02T12:41:53.893Z,17.30
2018-05-02T12:42:54.081Z,17.49
2018-05-02T12:43:54.275Z,17.27
2018-05-02T12:44:54.468Z,16.99
2018-05-02T12:45:54.660Z,17.07
2018-05-02T12:46:54.852Z,17.10
2018-05-02T12:47:55.044Z,16.77
2018-05-02T12:48:55.235Z,16.52
2018-05-02T12:49:55.429Z,16.33
2018-05-02T12:50:55.622Z,16.14
2018-05-02T12:51:55.815Z,16.22
2018-05-02T12:52:56.008Z,16.09
2018-05-02T12:53:56.196Z,16.08
2018-05-02T12:54:56.396Z,16.25
2018-05-02T12:55:56.652Z,16.36
2018-05-02T12:56:56.773Z,16.55
2018-05-02T12:57:56.971Z,16.74
2018-05-02T12:58:57.159Z,16.55
2018-05-02T12:59:57.350Z,16.39
2018-05-02T13:00:57.545Z,16.39
2018-05-02T13:01:57.738Z,16.39
2018-05-02T13:02:57.929Z,16.36
2018-05-02T13:03:58.122Z,16.46
2018-05-02T13:04:58.312Z,16.26
2018-05-02T13:05:58.507Z,16.36
2018-05-02T13:06:58.693Z,16.44
2018-05-02T13:07:58.892Z,16.64
2018-05-02T13:08:59.078Z,16.39